Aérodrome :
LOGIN :

S'inscrire | Disclaimer

   EN    FR    IT 

 










Légende :    VFR   VFR Marginal   IFR   IFR Intensif   IFR Très Intensif
Visi : 
Plafond : 
>= 8 km
>= 3000ft
5 à 8 km
1000 à 3000 ft
1500m à 5 km
500 à 1000 ft
800 à 1500m
200 à 500 ft
< 800m
< 200 ft
Symboles :   Orages  Brouillard  Fortes neiges  Fortes précipitations  Vent > 20 kt
SIGMETs :   Divers  Orages  Givrage  Turbulence  Onde Orograph.  Cendres Volcan.







- Altitude de l'aérodrome : 1276 ft
- Code IATA : STR


EDDS - Stuttgart

DERNIER METAR :
  • 241550Z 05011KT 9999 BKN021 10/06 Q1025 NOSIG

METARs EXPIRÉS :
  • 241520Z 05011KT 9999 BKN022 10/06 Q1025 NOSIG
  • 241450Z 06010KT 9999 BKN019 10/06 Q1025 NOSIG
  • 241420Z 06010KT 9999 BKN018 10/06 Q1024 NOSIG
  • 241350Z 05013KT 9999 BKN016 10/06 Q1024 NOSIG
  • 241320Z 05011KT 9000 BKN015 09/06 Q1024 BECMG BKN015
  • 241250Z 04012KT 8000 BKN014 09/06 Q1025 BECMG BKN015

TAF COR TAF EDDS
Valide du 24 à 12h jusqu'au 25 à 12h UTC


241154Z 2412/2512 05012KT 9999 BKN014
BECMG 2412/2414 SCT015
TEMPO 2420/2507 05007KT
Pas de NOTAMs connus pour ce terrain.



MET'MAP, la Météo Aéronautique d'un coup d'oeil ! - Copyright ORBIFLY Décembre 2007 - Disclaimer

ORBIFLY MET'MAP TEAM :

Programmation & Développement : Alexandra Zaïnal
Conception & Développement : Baudouin d'Aumeries
Co-Programmation & Développement : Marc-Olivier Méhu
Soutien technique & logistique : Manuel Goepfert

Contact : metmap@orbifly.com




SOURCES & CREDITS :

   NOAA